sensor_id;sensor_type;location;lat;lon;timestamp;pressure;altitude;pressure_sealevel;temperature;humidity
6833;BME280;3454;42.654;23.378;2023-01-04T00:01:01;95405.56;;;9.80;100.00
6833;BME280;3454;42.654;23.378;2023-01-04T00:03:26;95389.84;;;9.75;100.00
6833;BME280;3454;42.654;23.378;2023-01-04T00:05:52;95395.63;;;9.77;100.00
6833;BME280;3454;42.654;23.378;2023-01-04T00:08:17;95394.00;;;9.76;100.00
6833;BME280;3454;42.654;23.378;2023-01-04T00:10:43;95387.78;;;9.80;100.00
6833;BME280;3454;42.654;23.378;2023-01-04T00:13:08;95391.34;;;9.78;100.00
6833;BME280;3454;42.654;23.378;2023-01-04T00:15:34;95395.72;;;9.76;100.00
6833;BME280;3454;42.654;23.378;2023-01-04T00:17:59;95384.84;;;9.74;100.00
6833;BME280;3454;42.654;23.378;2023-01-04T00:20:25;95384.25;;;9.70;100.00
6833;BME280;3454;42.654;23.378;2023-01-04T00:22:50;95403.00;;;9.80;100.00
6833;BME280;3454;42.654;23.378;2023-01-04T00:25:16;95389.84;;;9.75;100.00
6833;BME280;3454;42.654;23.378;2023-01-04T00:27:41;95403.66;;;9.71;100.00
6833;BME280;3454;42.654;23.378;2023-01-04T00:30:08;95405.78;;;9.77;100.00
6833;BME280;3454;42.654;23.378;2023-01-04T00:32:33;95403.34;;;9.76;100.00
6833;BME280;3454;42.654;23.378;2023-01-04T00:34:58;95402.44;;;9.77;100.00
6833;BME280;3454;42.654;23.378;2023-01-04T00:37:24;95402.44;;;9.77;100.00
6833;BME280;3454;42.654;23.378;2023-01-04T00:39:49;95397.88;;;9.69;100.00
6833;BME280;3454;42.654;23.378;2023-01-04T00:42:15;95403.16;;;9.66;100.00
6833;BME280;3454;42.654;23.378;2023-01-04T00:44:40;95401.22;;;9.70;100.00
6833;BME280;3454;42.654;23.378;2023-01-04T00:47:06;95403.06;;;9.68;100.00
6833;BME280;3454;42.654;23.378;2023-01-04T00:49:32;95409.25;;;9.64;100.00
6833;BME280;3454;42.654;23.378;2023-01-04T00:51:58;95409.25;;;9.64;100.00
6833;BME280;3454;42.654;23.378;2023-01-04T00:54:23;95411.91;;;9.62;100.00
6833;BME280;3454;42.654;23.378;2023-01-04T00:56:49;95411.91;;;9.62;100.00
6833;BME280;3454;42.654;23.378;2023-01-04T00:59:18;95405.13;;;9.63;100.00
6833;BME280;3454;42.654;23.378;2023-01-04T01:01:43;95402.78;;;9.60;100.00
6833;BME280;3454;42.654;23.378;2023-01-04T01:04:11;95401.28;;;9.57;100.00
6833;BME280;3454;42.654;23.378;2023-01-04T01:06:37;95413.25;;;9.55;100.00
6833;BME280;3454;42.654;23.378;2023-01-04T01:09:03;95425.72;;;9.58;100.00
6833;BME280;3454;42.654;23.378;2023-01-04T01:11:29;95425.03;;;9.56;100.00
6833;BME280;3454;42.654;23.378;2023-01-04T01:13:55;95433.22;;;9.60;100.00
6833;BME280;3454;42.654;23.378;2023-01-04T01:16:22;95435.69;;;9.61;100.00
6833;BME280;3454;42.654;23.378;2023-01-04T01:18:48;95424.53;;;9.51;100.00
6833;BME280;3454;42.654;23.378;2023-01-04T01:21:17;95449.50;;;9.57;100.00
6833;BME280;3454;42.654;23.378;2023-01-04T01:23:44;95452.38;;;9.15;100.00
6833;BME280;3454;42.654;23.378;2023-01-04T01:26:15;95389.06;;;9.01;100.00
6833;BME280;3454;42.654;23.378;2023-01-04T01:28:41;95410.09;;;9.03;100.00
6833;BME280;3454;42.654;23.378;2023-01-04T01:31:09;95413.00;;;9.09;100.00
6833;BME280;3454;42.654;23.378;2023-01-04T01:33:39;95389.47;;;9.07;100.00
6833;BME280;3454;42.654;23.378;2023-01-04T01:36:05;95386.75;;;9.10;100.00
6833;BME280;3454;42.654;23.378;2023-01-04T01:38:31;95386.03;;;9.21;100.00
6833;BME280;3454;42.654;23.378;2023-01-04T01:40:57;95397.59;;;9.25;100.00
6833;BME280;3454;42.654;23.378;2023-01-04T01:46:32;95384.06;;;9.24;100.00
6833;BME280;3454;42.654;23.378;2023-01-04T01:49:05;95391.81;;;9.23;100.00
6833;BME280;3454;42.654;23.378;2023-01-04T01:51:34;95404.06;;;9.29;100.00
6833;BME280;3454;42.654;23.378;2023-01-04T01:54:06;95396.25;;;9.32;100.00
6833;BME280;3454;42.654;23.378;2023-01-04T01:56:36;95382.84;;;9.30;100.00
6833;BME280;3454;42.654;23.378;2023-01-04T01:59:02;95381.53;;;9.24;100.00
6833;BME280;3454;42.654;23.378;2023-01-04T02:01:28;95390.16;;;9.35;100.00
6833;BME280;3454;42.654;23.378;2023-01-04T02:03:54;95358.72;;;9.12;100.00
6833;BME280;3454;42.654;23.378;2023-01-04T02:06:24;95356.78;;;9.15;100.00
6833;BME280;3454;42.654;23.378;2023-01-04T02:08:53;95359.25;;;9.17;100.00
6833;BME280;3454;42.654;23.378;2023-01-04T02:11:19;95374.84;;;9.23;100.00
6833;BME280;3454;42.654;23.378;2023-01-04T02:13:45;95368.47;;;9.18;100.00
6833;BME280;3454;42.654;23.378;2023-01-04T02:36:02;95357.91;;;8.99;100.00
6833;BME280;3454;42.654;23.378;2023-01-04T02:38:39;95349.94;;;8.92;100.00
6833;BME280;3454;42.654;23.378;2023-01-04T02:41:45;95355.78;;;8.93;100.00
6833;BME280;3454;42.654;23.378;2023-01-04T02:44:16;95346.88;;;8.87;100.00
6833;BME280;3454;42.654;23.378;2023-01-04T02:47:03;95348.94;;;8.82;100.00
6833;BME280;3454;42.654;23.378;2023-01-04T02:49:30;95349.63;;;8.72;100.00
6833;BME280;3454;42.654;23.378;2023-01-04T02:52:14;95352.06;;;8.73;100.00
6833;BME280;3454;42.654;23.378;2023-01-04T02:54:40;95349.94;;;8.67;100.00
6833;BME280;3454;42.654;23.378;2023-01-04T02:57:42;95354.50;;;8.62;100.00
6833;BME280;3454;42.654;23.378;2023-01-04T03:00:28;95361.06;;;8.65;100.00
6833;BME280;3454;42.654;23.378;2023-01-04T03:03:22;95354.28;;;8.53;100.00
6833;BME280;3454;42.654;23.378;2023-01-04T03:06:13;95355.91;;;8.54;100.00
6833;BME280;3454;42.654;23.378;2023-01-04T03:09:00;95346.19;;;8.48;100.00
6833;BME280;3454;42.654;23.378;2023-01-04T03:11:35;95345.25;;;8.36;100.00
6833;BME280;3454;42.654;23.378;2023-01-04T03:14:23;95352.13;;;8.46;100.00
6833;BME280;3454;42.654;23.378;2023-01-04T03:16:51;95354.19;;;8.41;100.00
6833;BME280;3454;42.654;23.378;2023-01-04T03:19:21;95347.38;;;8.29;100.00
6833;BME280;3454;42.654;23.378;2023-01-04T03:22:12;95362.38;;;8.32;100.00
6833;BME280;3454;42.654;23.378;2023-01-04T03:24:58;95369.34;;;8.29;100.00
6833;BME280;3454;42.654;23.378;2023-01-04T03:27:46;95376.84;;;8.30;100.00
6833;BME280;3454;42.654;23.378;2023-01-04T03:30:34;95385.56;;;8.26;100.00
6833;BME280;3454;42.654;23.378;2023-01-04T03:33:22;95381.41;;;8.25;100.00
6833;BME280;3454;42.654;23.378;2023-01-04T03:39:00;95378.06;;;8.25;100.00
6833;BME280;3454;42.654;23.378;2023-01-04T03:41:46;95377.53;;;8.20;100.00
6833;BME280;3454;42.654;23.378;2023-01-04T03:47:33;95379.84;;;8.23;100.00
6833;BME280;3454;42.654;23.378;2023-01-04T03:50:38;95376.38;;;8.11;100.00
6833;BME280;3454;42.654;23.378;2023-01-04T03:53:06;95384.69;;;8.13;100.00
6833;BME280;3454;42.654;23.378;2023-01-04T03:55:34;95383.53;;;8.05;100.00
6833;BME280;3454;42.654;23.378;2023-01-04T03:58:01;95383.03;;;8.00;100.00
6833;BME280;3454;42.654;23.378;2023-01-04T04:00:26;95379.88;;;7.96;100.00
6833;BME280;3454;42.654;23.378;2023-01-04T04:02:52;95389.91;;;7.98;100.00
6833;BME280;3454;42.654;23.378;2023-01-04T04:05:20;95394.16;;;7.97;100.00
6833;BME280;3454;42.654;23.378;2023-01-04T04:08:05;95395.78;;;7.98;100.00
6833;BME280;3454;42.654;23.378;2023-01-04T04:10:50;95401.94;;;7.94;100.00
6833;BME280;3454;42.654;23.378;2023-01-04T04:13:15;95395.78;;;7.98;100.00
6833;BME280;3454;42.654;23.378;2023-01-04T04:15:41;95402.66;;;7.96;100.00
6833;BME280;3454;42.654;23.378;2023-01-04T04:18:07;95376.28;;;7.86;100.00
6833;BME280;3454;42.654;23.378;2023-01-04T04:20:32;95398.31;;;7.98;100.00
6833;BME280;3454;42.654;23.378;2023-01-04T04:22:58;95398.13;;;8.01;100.00
6833;BME280;3454;42.654;23.378;2023-01-04T04:25:24;95409.28;;;8.11;100.00
6833;BME280;3454;42.654;23.378;2023-01-04T04:27:49;95415.25;;;8.10;100.00
6833;BME280;3454;42.654;23.378;2023-01-04T04:30:14;95412.41;;;8.02;100.00
6833;BME280;3454;42.654;23.378;2023-01-04T04:32:40;95400.94;;;7.97;100.00
6833;BME280;3454;42.654;23.378;2023-01-04T04:35:06;95418.50;;;8.12;100.00
6833;BME280;3454;42.654;23.378;2023-01-04T04:37:33;95423.22;;;8.04;100.00
6833;BME280;3454;42.654;23.378;2023-01-04T04:39:59;95428.31;;;8.04;100.00
6833;BME280;3454;42.654;23.378;2023-01-04T04:42:25;95429.66;;;8.10;100.00
6833;BME280;3454;42.654;23.378;2023-01-04T04:44:50;95429.94;;;8.05;100.00
6833;BME280;3454;42.654;23.378;2023-01-04T04:47:15;95421.28;;;7.95;100.00
6833;BME280;3454;42.654;23.378;2023-01-04T04:49:41;95429.59;;;7.97;100.00
6833;BME280;3454;42.654;23.378;2023-01-04T04:52:06;95436.38;;;7.97;100.00
6833;BME280;3454;42.654;23.378;2023-01-04T04:54:32;95435.22;;;7.88;100.00
6833;BME280;3454;42.654;23.378;2023-01-04T04:56:58;95444.78;;;7.97;100.00
6833;BME280;3454;42.654;23.378;2023-01-04T04:59:23;95431.31;;;7.97;100.00
6833;BME280;3454;42.654;23.378;2023-01-04T05:01:48;95438.34;;;8.06;100.00
6833;BME280;3454;42.654;23.378;2023-01-04T05:04:14;95440.97;;;8.04;100.00
6833;BME280;3454;42.654;23.378;2023-01-04T05:06:45;95441.88;;;8.03;100.00
6833;BME280;3454;42.654;23.378;2023-01-04T05:09:12;95440.97;;;8.04;100.00
6833;BME280;3454;42.654;23.378;2023-01-04T05:11:38;95433.38;;;8.04;100.00
6833;BME280;3454;42.654;23.378;2023-01-04T05:14:22;95431.41;;;7.95;100.00
6833;BME280;3454;42.654;23.378;2023-01-04T05:16:47;95442.69;;;8.04;100.00
6833;BME280;3454;42.654;23.378;2023-01-04T05:19:13;95443.16;;;7.96;100.00
6833;BME280;3454;42.654;23.378;2023-01-04T05:21:38;95425.38;;;7.98;100.00
6833;BME280;3454;42.654;23.378;2023-01-04T05:24:05;95443.75;;;7.87;100.00
6833;BME280;3454;42.654;23.378;2023-01-04T05:26:31;95442.91;;;7.87;100.00
6833;BME280;3454;42.654;23.378;2023-01-04T05:28:56;95443.41;;;7.79;100.00
6833;BME280;3454;42.654;23.378;2023-01-04T05:31:22;95452.75;;;7.91;100.00
6833;BME280;3454;42.654;23.378;2023-01-04T05:33:48;95452.22;;;7.86;100.00
6833;BME280;3454;42.654;23.378;2023-01-04T05:36:14;95455.56;;;7.87;100.00
6833;BME280;3454;42.654;23.378;2023-01-04T05:38:39;95450.63;;;7.85;100.00
6833;BME280;3454;42.654;23.378;2023-01-04T05:41:04;95463.41;;;7.96;100.00
6833;BME280;3454;42.654;23.378;2023-01-04T05:43:51;95471.94;;;7.95;100.00
6833;BME280;3454;42.654;23.378;2023-01-04T05:46:16;95464.94;;;7.99;100.00
6833;BME280;3454;42.654;23.378;2023-01-04T05:48:42;95462.41;;;7.99;100.00
6833;BME280;3454;42.654;23.378;2023-01-04T05:51:07;95470.81;;;7.99;100.00
6833;BME280;3454;42.654;23.378;2023-01-04T05:53:33;95469.56;;;7.92;100.00
6833;BME280;3454;42.654;23.378;2023-01-04T05:55:58;95480.25;;;7.97;100.00
6833;BME280;3454;42.654;23.378;2023-01-04T05:58:23;95474.47;;;7.95;100.00
6833;BME280;3454;42.654;23.378;2023-01-04T06:00:49;95486.75;;;8.01;100.00
6833;BME280;3454;42.654;23.378;2023-01-04T06:03:14;95481.06;;;7.98;100.00
6833;BME280;3454;42.654;23.378;2023-01-04T06:05:40;95476.41;;;8.04;100.00
6833;BME280;3454;42.654;23.378;2023-01-04T06:08:06;95477.34;;;8.03;100.00
6833;BME280;3454;42.654;23.378;2023-01-04T06:10:32;95477.00;;;7.95;100.00
6833;BME280;3454;42.654;23.378;2023-01-04T06:12:57;95483.66;;;7.96;100.00
6833;BME280;3454;42.654;23.378;2023-01-04T06:15:23;95476.78;;;7.98;100.00
6833;BME280;3454;42.654;23.378;2023-01-04T06:17:48;95483.50;;;7.99;100.00
6833;BME280;3454;42.654;23.378;2023-01-04T06:20:13;95479.25;;;8.00;100.00
6833;BME280;3454;42.654;23.378;2023-01-04T06:22:40;95491.97;;;7.98;100.00
6833;BME280;3454;42.654;23.378;2023-01-04T06:25:06;95493.50;;;8.01;100.00
6833;BME280;3454;42.654;23.378;2023-01-04T06:27:33;95494.81;;;8.20;100.00
6833;BME280;3454;42.654;23.378;2023-01-04T06:29:58;95506.63;;;8.07;100.00
6833;BME280;3454;42.654;23.378;2023-01-04T06:32:23;95487.13;;;7.95;100.00
6833;BME280;3454;42.654;23.378;2023-01-04T06:34:49;95503.91;;;7.96;100.00
6833;BME280;3454;42.654;23.378;2023-01-04T06:37:14;95510.72;;;7.96;100.00
6833;BME280;3454;42.654;23.378;2023-01-04T06:39:39;95508.97;;;7.96;100.00
6833;BME280;3454;42.654;23.378;2023-01-04T06:42:05;95503.63;;;8.01;100.00
6833;BME280;3454;42.654;23.378;2023-01-04T06:44:50;95507.44;;;8.08;100.00
6833;BME280;3454;42.654;23.378;2023-01-04T06:47:23;95513.50;;;8.05;100.00
6833;BME280;3454;42.654;23.378;2023-01-04T06:49:48;95508.72;;;8.01;100.00
6833;BME280;3454;42.654;23.378;2023-01-04T06:52:13;95519.28;;;8.07;100.00
6833;BME280;3454;42.654;23.378;2023-01-04T06:54:39;95513.16;;;7.97;100.00
6833;BME280;3454;42.654;23.378;2023-01-04T06:57:04;95521.59;;;8.10;100.00
6833;BME280;3454;42.654;23.378;2023-01-04T06:59:29;95509.31;;;8.04;100.00
6833;BME280;3454;42.654;23.378;2023-01-04T07:01:55;95518.09;;;8.13;100.00
6833;BME280;3454;42.654;23.378;2023-01-04T07:04:20;95522.25;;;8.14;100.00
6833;BME280;3454;42.654;23.378;2023-01-04T07:06:46;95533.53;;;8.22;100.00
6833;BME280;3454;42.654;23.378;2023-01-04T07:09:11;95529.03;;;8.13;100.00
6833;BME280;3454;42.654;23.378;2023-01-04T07:11:36;95545.84;;;8.28;100.00
6833;BME280;3454;42.654;23.378;2023-01-04T07:14:02;95558.94;;;8.35;100.00
6833;BME280;3454;42.654;23.378;2023-01-04T07:16:27;95562.91;;;8.39;100.00
6833;BME280;3454;42.654;23.378;2023-01-04T07:18:53;95567.38;;;8.35;100.00
6833;BME280;3454;42.654;23.378;2023-01-04T07:21:18;95567.88;;;8.40;100.00
6833;BME280;3454;42.654;23.378;2023-01-04T07:23:43;95586.22;;;8.58;100.00
6833;BME280;3454;42.654;23.378;2023-01-04T07:26:09;95593.06;;;8.70;100.00
6833;BME280;3454;42.654;23.378;2023-01-04T07:28:34;95588.91;;;8.69;100.00
6833;BME280;3454;42.654;23.378;2023-01-04T07:31:24;95607.50;;;8.82;100.00
6833;BME280;3454;42.654;23.378;2023-01-04T07:33:50;95615.25;;;8.93;100.00
6833;BME280;3454;42.654;23.378;2023-01-04T07:36:15;95610.88;;;8.95;100.00
6833;BME280;3454;42.654;23.378;2023-01-04T07:38:41;95607.91;;;9.03;100.00
6833;BME280;3454;42.654;23.378;2023-01-04T07:41:07;95613.44;;;8.95;100.00
6833;BME280;3454;42.654;23.378;2023-01-04T07:43:33;95595.34;;;8.87;100.00
6833;BME280;3454;42.654;23.378;2023-01-04T07:45:58;95610.03;;;9.09;100.00
6833;BME280;3454;42.654;23.378;2023-01-04T07:48:24;95656.00;;;9.56;100.00
6833;BME280;3454;42.654;23.378;2023-01-04T07:50:49;95653.16;;;9.48;100.00
6833;BME280;3454;42.654;23.378;2023-01-04T07:53:15;95647.25;;;9.35;100.00
6833;BME280;3454;42.654;23.378;2023-01-04T07:55:40;95627.34;;;9.29;100.00
6833;BME280;3454;42.654;23.378;2023-01-04T07:58:05;95630.88;;;9.26;100.00
6833;BME280;3454;42.654;23.378;2023-01-04T08:00:31;95634.53;;;9.22;100.00
6833;BME280;3454;42.654;23.378;2023-01-04T08:02:56;95603.16;;;9.11;100.00
6833;BME280;3454;42.654;23.378;2023-01-04T08:05:22;95622.78;;;9.07;100.00
6833;BME280;3454;42.654;23.378;2023-01-04T08:07:49;95588.69;;;8.99;100.00
6833;BME280;3454;42.654;23.378;2023-01-04T08:10:14;95599.25;;;9.05;100.00
6833;BME280;3454;42.654;23.378;2023-01-04T08:12:39;95619.91;;;9.26;100.00
6833;BME280;3454;42.654;23.378;2023-01-04T08:15:05;95639.75;;;9.46;100.00
6833;BME280;3454;42.654;23.378;2023-01-04T08:17:31;95659.06;;;9.61;100.00
6833;BME280;3454;42.654;23.378;2023-01-04T08:19:56;95676.94;;;9.72;100.00
6833;BME280;3454;42.654;23.378;2023-01-04T08:22:22;95703.22;;;10.23;100.00
6833;BME280;3454;42.654;23.378;2023-01-04T08:24:47;95708.25;;;9.98;100.00
6833;BME280;3454;42.654;23.378;2023-01-04T08:27:12;95705.25;;;10.18;100.00
6833;BME280;3454;42.654;23.378;2023-01-04T08:29:38;95685.31;;;9.99;100.00
6833;BME280;3454;42.654;23.378;2023-01-04T08:32:03;95666.75;;;9.60;100.00
6833;BME280;3454;42.654;23.378;2023-01-04T08:34:29;95622.16;;;9.30;100.00
6833;BME280;3454;42.654;23.378;2023-01-04T08:36:55;95616.94;;;9.19;100.00
6833;BME280;3454;42.654;23.378;2023-01-04T08:39:21;95599.69;;;9.12;100.00
6833;BME280;3454;42.654;23.378;2023-01-04T08:41:46;95574.50;;;8.96;100.00
6833;BME280;3454;42.654;23.378;2023-01-04T08:44:24;95597.38;;;8.95;100.00
6833;BME280;3454;42.654;23.378;2023-01-04T08:46:51;95564.75;;;8.64;100.00
6833;BME280;3454;42.654;23.378;2023-01-04T08:49:18;95568.28;;;8.61;100.00
6833;BME280;3454;42.654;23.378;2023-01-04T08:51:44;95574.50;;;8.96;100.00
6833;BME280;3454;42.654;23.378;2023-01-04T08:54:10;95571.75;;;8.73;100.00
6833;BME280;3454;42.654;23.378;2023-01-04T08:56:35;95554.84;;;8.46;100.00
6833;BME280;3454;42.654;23.378;2023-01-04T08:59:01;95567.47;;;8.61;100.00
6833;BME280;3454;42.654;23.378;2023-01-04T09:01:26;95555.38;;;8.52;100.00
6833;BME280;3454;42.654;23.378;2023-01-04T09:03:52;95558.00;;;8.50;100.00
6833;BME280;3454;42.654;23.378;2023-01-04T09:06:19;95554.13;;;8.44;100.00
6833;BME280;3454;42.654;23.378;2023-01-04T09:08:45;95532.28;;;8.29;100.00
6833;BME280;3454;42.654;23.378;2023-01-04T09:11:13;95527.50;;;8.25;100.00
6833;BME280;3454;42.654;23.378;2023-01-04T09:13:40;95524.59;;;8.31;100.00
6833;BME280;3454;42.654;23.378;2023-01-04T09:16:09;95527.56;;;8.23;100.00
6833;BME280;3454;42.654;23.378;2023-01-04T09:18:35;95507.97;;;8.13;100.00
6833;BME280;3454;42.654;23.378;2023-01-04T09:21:05;95531.38;;;8.16;100.00
6833;BME280;3454;42.654;23.378;2023-01-04T09:23:30;95519.19;;;8.09;100.00
6833;BME280;3454;42.654;23.378;2023-01-04T09:25:58;95534.25;;;8.24;100.00
6833;BME280;3454;42.654;23.378;2023-01-04T09:28:23;95542.03;;;8.35;100.00
6833;BME280;3454;42.654;23.378;2023-01-04T09:30:49;95546.75;;;8.13;100.00
6833;BME280;3454;42.654;23.378;2023-01-04T09:33:14;95549.47;;;8.10;100.00
6833;BME280;3454;42.654;23.378;2023-01-04T09:35:40;95540.16;;;8.11;100.00
6833;BME280;3454;42.654;23.378;2023-01-04T09:38:05;95535.38;;;8.06;100.00
6833;BME280;3454;42.654;23.378;2023-01-04T09:40:38;95544.03;;;8.16;100.00
6833;BME280;3454;42.654;23.378;2023-01-04T09:43:08;95523.19;;;7.99;100.00
6833;BME280;3454;42.654;23.378;2023-01-04T09:45:39;95556.41;;;8.21;100.00
6833;BME280;3454;42.654;23.378;2023-01-04T09:48:10;95570.75;;;8.08;100.00
6833;BME280;3454;42.654;23.378;2023-01-04T09:50:48;95589.63;;;8.30;100.00
6833;BME280;3454;42.654;23.378;2023-01-04T09:53:32;95581.22;;;8.30;100.00
6833;BME280;3454;42.654;23.378;2023-01-04T09:56:09;95584.09;;;8.38;100.00
6833;BME280;3454;42.654;23.378;2023-01-04T09:58:40;95580.19;;;8.46;100.00
6833;BME280;3454;42.654;23.378;2023-01-04T10:01:11;95591.53;;;8.68;100.00
6833;BME280;3454;42.654;23.378;2023-01-04T10:04:04;95596.44;;;8.57;100.00
6833;BME280;3454;42.654;23.378;2023-01-04T10:06:33;95607.25;;;8.73;100.00
6833;BME280;3454;42.654;23.378;2023-01-04T10:09:02;95620.69;;;8.61;100.00
6833;BME280;3454;42.654;23.378;2023-01-04T10:14:12;95589.91;;;8.40;100.00
6833;BME280;3454;42.654;23.378;2023-01-04T10:25:28;95556.41;;;8.35;100.00
6833;BME280;3454;42.654;23.378;2023-01-04T10:28:05;95576.09;;;8.58;100.00
6833;BME280;3454;42.654;23.378;2023-01-04T10:30:39;95609.41;;;8.79;100.00
6833;BME280;3454;42.654;23.378;2023-01-04T10:35:36;95586.31;;;8.57;100.00
6833;BME280;3454;42.654;23.378;2023-01-04T10:38:02;95577.44;;;8.64;100.00
6833;BME280;3454;42.654;23.378;2023-01-04T10:40:37;95565.66;;;8.63;100.00
6833;BME280;3454;42.654;23.378;2023-01-04T10:43:38;95557.84;;;8.39;100.00
6833;BME280;3454;42.654;23.378;2023-01-04T10:46:15;95542.28;;;8.45;100.00
6833;BME280;3454;42.654;23.378;2023-01-04T10:48:50;95539.59;;;8.34;100.00
6833;BME280;3454;42.654;23.378;2023-01-04T10:51:29;95522.75;;;8.33;100.00
6833;BME280;3454;42.654;23.378;2023-01-04T10:54:12;95544.81;;;8.45;100.00
6833;BME280;3454;42.654;23.378;2023-01-04T10:57:04;95541.28;;;8.48;100.00
6833;BME280;3454;42.654;23.378;2023-01-04T10:59:44;95529.72;;;8.43;100.00
6833;BME280;3454;42.654;23.378;2023-01-04T11:07:55;95539.34;;;8.51;100.00
6833;BME280;3454;42.654;23.378;2023-01-04T11:10:29;95551.88;;;8.67;100.00
6833;BME280;3454;42.654;23.378;2023-01-04T11:12:56;95562.44;;;8.73;100.00
6833;BME280;3454;42.654;23.378;2023-01-04T11:15:21;95574.44;;;9.10;100.00
6833;BME280;3454;42.654;23.378;2023-01-04T11:17:48;95586.84;;;9.01;100.00
6833;BME280;3454;42.654;23.378;2023-01-04T11:20:14;95560.78;;;8.99;100.00
6833;BME280;3454;42.654;23.378;2023-01-04T11:22:53;95571.03;;;8.97;100.00
6833;BME280;3454;42.654;23.378;2023-01-04T11:25:22;95566.47;;;8.90;100.00
6833;BME280;3454;42.654;23.378;2023-01-04T11:28:16;95572.47;;;9.01;100.00
6833;BME280;3454;42.654;23.378;2023-01-04T11:31:12;95557.31;;;8.87;100.00
6833;BME280;3454;42.654;23.378;2023-01-04T11:38:59;95540.97;;;8.79;100.00
6833;BME280;3454;42.654;23.378;2023-01-04T11:41:25;95543.44;;;8.93;100.00
6833;BME280;3454;42.654;23.378;2023-01-04T11:44:09;95552.06;;;8.90;100.00
6833;BME280;3454;42.654;23.378;2023-01-04T11:46:42;95543.63;;;8.90;100.00
6833;BME280;3454;42.654;23.378;2023-01-04T11:49:18;95540.22;;;9.03;100.00
6833;BME280;3454;42.654;23.378;2023-01-04T11:51:44;95544.66;;;9.00;100.00
6833;BME280;3454;42.654;23.378;2023-01-04T11:54:17;95542.47;;;9.08;100.00
6833;BME280;3454;42.654;23.378;2023-01-04T11:57:04;95532.72;;;9.02;100.00
6833;BME280;3454;42.654;23.378;2023-01-04T11:59:32;95536.06;;;9.02;100.00
6833;BME280;3454;42.654;23.378;2023-01-04T12:02:18;95504.75;;;8.64;100.00
6833;BME280;3454;42.654;23.378;2023-01-04T12:04:44;95492.97;;;8.63;100.00
6833;BME280;3454;42.654;23.378;2023-01-04T12:07:30;95484.53;;;8.63;100.00
6833;BME280;3454;42.654;23.378;2023-01-04T12:09:58;95512.84;;;9.08;100.00
6833;BME280;3454;42.654;23.378;2023-01-04T12:12:28;95545.50;;;9.25;100.00
6833;BME280;3454;42.654;23.378;2023-01-04T12:14:55;95538.31;;;9.19;100.00
6833;BME280;3454;42.654;23.378;2023-01-04T12:17:29;95536.59;;;9.20;100.00
6833;BME280;3454;42.654;23.378;2023-01-04T12:20:02;95567.25;;;9.42;100.00
6833;BME280;3454;42.654;23.378;2023-01-04T12:22:37;95575.59;;;9.57;100.00
6833;BME280;3454;42.654;23.378;2023-01-04T12:25:07;95575.78;;;9.66;100.00
6833;BME280;3454;42.654;23.378;2023-01-04T12:27:48;95608.09;;;9.89;100.00
6833;BME280;3454;42.654;23.378;2023-01-04T12:30:34;95608.69;;;9.93;100.00
6833;BME280;3454;42.654;23.378;2023-01-04T12:36:03;95550.41;;;9.41;100.00
6833;BME280;3454;42.654;23.378;2023-01-04T12:41:13;95516.19;;;9.09;100.00
6833;BME280;3454;42.654;23.378;2023-01-04T12:43:38;95491.72;;;8.95;100.00
6833;BME280;3454;42.654;23.378;2023-01-04T12:54:47;95495.66;;;8.99;100.00
6833;BME280;3454;42.654;23.378;2023-01-04T13:00:12;95492.03;;;9.03;100.00
6833;BME280;3454;42.654;23.378;2023-01-04T13:02:42;95479.56;;;9.00;100.00
6833;BME280;3454;42.654;23.378;2023-01-04T13:07:52;95465.53;;;8.95;100.00
6833;BME280;3454;42.654;23.378;2023-01-04T13:10:41;95457.75;;;8.98;100.00
6833;BME280;3454;42.654;23.378;2023-01-04T13:18:40;95460.28;;;8.98;100.00
6833;BME280;3454;42.654;23.378;2023-01-04T13:21:12;95461.09;;;8.98;100.00
6833;BME280;3454;42.654;23.378;2023-01-04T13:23:47;95470.41;;;8.98;100.00
6833;BME280;3454;42.654;23.378;2023-01-04T13:26:46;95472.97;;;8.98;100.00
6833;BME280;3454;42.654;23.378;2023-01-04T13:29:32;95486.44;;;8.98;100.00
6833;BME280;3454;42.654;23.378;2023-01-04T13:39:22;95475.28;;;9.13;100.00
6833;BME280;3454;42.654;23.378;2023-01-04T13:41:48;95513.38;;;9.39;100.00
6833;BME280;3454;42.654;23.378;2023-01-04T13:44:23;95490.94;;;9.20;100.00
6833;BME280;3454;42.654;23.378;2023-01-04T13:46:51;95491.44;;;9.12;100.00
6833;BME280;3454;42.654;23.378;2023-01-04T13:49:19;95484.66;;;9.13;100.00
6833;BME280;3454;42.654;23.378;2023-01-04T13:51:44;95480.16;;;9.04;100.00
6833;BME280;3454;42.654;23.378;2023-01-04T13:54:19;95481.09;;;9.03;100.00
6833;BME280;3454;42.654;23.378;2023-01-04T13:56:45;95484.34;;;9.05;100.00
6833;BME280;3454;42.654;23.378;2023-01-04T13:59:11;95481.56;;;8.95;100.00
6833;BME280;3454;42.654;23.378;2023-01-04T14:01:44;95489.91;;;9.10;100.00
6833;BME280;3454;42.654;23.378;2023-01-04T14:04:25;95476.38;;;8.97;100.00
6833;BME280;3454;42.654;23.378;2023-01-04T14:06:53;95474.06;;;8.94;100.00
6833;BME280;3454;42.654;23.378;2023-01-04T14:09:21;95471.63;;;8.92;100.00
6833;BME280;3454;42.654;23.378;2023-01-04T14:11:54;95469.91;;;8.93;100.00
6833;BME280;3454;42.654;23.378;2023-01-04T14:17:12;95461.19;;;8.84;100.00
6833;BME280;3454;42.654;23.378;2023-01-04T14:24:52;95460.38;;;8.84;100.00
6833;BME280;3454;42.654;23.378;2023-01-04T14:29:57;95469.41;;;9.00;100.00
6833;BME280;3454;42.654;23.378;2023-01-04T14:32:23;95468.00;;;8.96;100.00
6833;BME280;3454;42.654;23.378;2023-01-04T14:34:49;95459.28;;;9.00;100.00
6833;BME280;3454;42.654;23.378;2023-01-04T14:37:15;95452.56;;;8.99;100.00
6833;BME280;3454;42.654;23.378;2023-01-04T14:39:40;95463.72;;;8.97;100.00
6833;BME280;3454;42.654;23.378;2023-01-04T14:42:23;95452.06;;;8.94;100.00
6833;BME280;3454;42.654;23.378;2023-01-04T14:44:49;95450.44;;;8.93;100.00
6833;BME280;3454;42.654;23.378;2023-01-04T14:47:14;95460.28;;;8.98;100.00
6833;BME280;3454;42.654;23.378;2023-01-04T14:49:40;95442.09;;;8.79;100.00
6833;BME280;3454;42.654;23.378;2023-01-04T14:52:11;95421.81;;;8.66;100.00
6833;BME280;3454;42.654;23.378;2023-01-04T14:54:43;95434.09;;;8.72;100.00
6833;BME280;3454;42.654;23.378;2023-01-04T14:57:09;95434.38;;;8.68;100.00
6833;BME280;3454;42.654;23.378;2023-01-04T14:59:35;95422.50;;;8.56;100.00
6833;BME280;3454;42.654;23.378;2023-01-04T15:02:00;95425.16;;;8.54;100.00